sensor_id;sensor_type;location;lat;lon;timestamp;pressure;altitude;pressure_sealevel;temperature;humidity
74905;BME280;63465;50.862;6.220;2024-02-15T00:02:07;100114.06;;;11.76;100.00
74905;BME280;63465;50.862;6.220;2024-02-15T00:04:32;100110.81;;;11.72;100.00
74905;BME280;63465;50.862;6.220;2024-02-15T00:06:58;100105.34;;;11.88;100.00
74905;BME280;63465;50.862;6.220;2024-02-15T00:09:25;100108.28;;;11.96;100.00
74905;BME280;63465;50.862;6.220;2024-02-15T00:11:50;100101.56;;;11.92;100.00
74905;BME280;63465;50.862;6.220;2024-02-15T00:14:15;100105.78;;;11.95;100.00
74905;BME280;63465;50.862;6.220;2024-02-15T00:16:42;100104.59;;;11.99;100.00
74905;BME280;63465;50.862;6.220;2024-02-15T00:19:07;100101.34;;;11.95;100.00
74905;BME280;63465;50.862;6.220;2024-02-15T00:21:33;100105.78;;;11.95;100.00
74905;BME280;63465;50.862;6.220;2024-02-15T00:23:58;100100.72;;;11.91;100.00
74905;BME280;63465;50.862;6.220;2024-02-15T00:26:25;100101.34;;;11.95;100.00
74905;BME280;63465;50.862;6.220;2024-02-15T00:28:50;100106.81;;;11.92;100.00
74905;BME280;63465;50.862;6.220;2024-02-15T00:31:15;100096.31;;;11.92;100.00
74905;BME280;63465;50.862;6.220;2024-02-15T00:33:41;100101.16;;;11.85;100.00
74905;BME280;63465;50.862;6.220;2024-02-15T00:36:06;100098.09;;;11.91;100.00
74905;BME280;63465;50.862;6.220;2024-02-15T00:38:32;100095.47;;;11.91;100.00
74905;BME280;63465;50.862;6.220;2024-02-15T00:40:58;100098.19;;;12.03;100.00
74905;BME280;63465;50.862;6.220;2024-02-15T00:43:27;100094.09;;;11.99;100.00
74905;BME280;63465;50.862;6.220;2024-02-15T00:45:52;100097.34;;;12.02;100.00
74905;BME280;63465;50.862;6.220;2024-02-15T00:48:18;100095.66;;;12.01;100.00
74905;BME280;63465;50.862;6.220;2024-02-15T00:50:43;100097.56;;;11.99;100.00
74905;BME280;63465;50.862;6.220;2024-02-15T00:53:08;100099.53;;;12.08;100.00
74905;BME280;63465;50.862;6.220;2024-02-15T00:55:34;100101.75;;;12.02;100.00
74905;BME280;63465;50.862;6.220;2024-02-15T00:57:59;100100.91;;;12.01;100.00
74905;BME280;63465;50.862;6.220;2024-02-15T01:00:24;100100.19;;;11.99;100.00
74905;BME280;63465;50.862;6.220;2024-02-15T01:02:51;100092.19;;;12.01;100.00
74905;BME280;63465;50.862;6.220;2024-02-15T01:05:18;100089.13;;;12.07;100.00
74905;BME280;63465;50.862;6.220;2024-02-15T01:07:43;100094.50;;;12.05;100.00
74905;BME280;63465;50.862;6.220;2024-02-15T01:10:09;100091.06;;;11.79;100.00
74905;BME280;63465;50.862;6.220;2024-02-15T01:12:34;100088.00;;;11.85;100.00
74905;BME280;63465;50.862;6.220;2024-02-15T01:14:59;100082.03;;;11.83;100.00
74905;BME280;63465;50.862;6.220;2024-02-15T01:17:24;100091.81;;;11.81;100.00
74905;BME280;63465;50.862;6.220;2024-02-15T01:19:50;100088.97;;;11.84;100.00
74905;BME280;63465;50.862;6.220;2024-02-15T01:22:16;100084.56;;;11.85;100.00
74905;BME280;63465;50.862;6.220;2024-02-15T01:24:41;100081.19;;;11.83;100.00
74905;BME280;63465;50.862;6.220;2024-02-15T01:27:07;100076.16;;;11.80;100.00
74905;BME280;63465;50.862;6.220;2024-02-15T01:29:32;100079.19;;;11.86;100.00
74905;BME280;63465;50.862;6.220;2024-02-15T01:31:58;100076.34;;;11.89;100.00
74905;BME280;63465;50.862;6.220;2024-02-15T01:34:23;100086.66;;;11.80;100.00
74905;BME280;63465;50.862;6.220;2024-02-15T01:36:48;100078.34;;;11.86;100.00
74905;BME280;63465;50.862;6.220;2024-02-15T01:39:15;100077.28;;;11.88;100.00
74905;BME280;63465;50.862;6.220;2024-02-15T01:41:40;100069.81;;;11.95;100.00
74905;BME280;63465;50.862;6.220;2024-02-15T01:44:06;100073.81;;;11.88;100.00
74905;BME280;63465;50.862;6.220;2024-02-15T01:46:32;100068.56;;;11.88;100.00
74905;BME280;63465;50.862;6.220;2024-02-15T01:48:58;100069.19;;;11.91;100.00
74905;BME280;63465;50.862;6.220;2024-02-15T01:51:25;100071.94;;;11.90;100.00
74905;BME280;63465;50.862;6.220;2024-02-15T01:53:53;100062.03;;;11.94;100.00
74905;BME280;63465;50.862;6.220;2024-02-15T01:56:19;100068.75;;;11.98;100.00
74905;BME280;63465;50.862;6.220;2024-02-15T01:58:45;100060.84;;;12.10;100.00
74905;BME280;63465;50.862;6.220;2024-02-15T02:01:11;100062.03;;;11.94;100.00
74905;BME280;63465;50.862;6.220;2024-02-15T02:03:37;100068.75;;;11.98;100.00
74905;BME280;63465;50.862;6.220;2024-02-15T02:06:04;100048.47;;;12.00;100.00
74905;BME280;63465;50.862;6.220;2024-02-15T02:08:30;100050.56;;;11.95;100.00
74905;BME280;63465;50.862;6.220;2024-02-15T02:10:55;100045.75;;;11.88;100.00
74905;BME280;63465;50.862;6.220;2024-02-15T02:13:20;100043.34;;;11.85;100.00
74905;BME280;63465;50.862;6.220;2024-02-15T02:15:46;100038.09;;;11.85;100.00
74905;BME280;63465;50.862;6.220;2024-02-15T02:18:12;100028.31;;;11.87;100.00
74905;BME280;63465;50.862;6.220;2024-02-15T02:20:38;100031.16;;;11.84;100.00
74905;BME280;63465;50.862;6.220;2024-02-15T02:23:07;100020.31;;;11.89;100.00
74905;BME280;63465;50.862;6.220;2024-02-15T02:25:33;100024.53;;;11.79;100.00
74905;BME280;63465;50.862;6.220;2024-02-15T02:27:59;100025.56;;;11.89;100.00
74905;BME280;63465;50.862;6.220;2024-02-15T02:30:25;100023.88;;;11.88;100.00
74905;BME280;63465;50.862;6.220;2024-02-15T02:32:55;100019.16;;;11.93;100.00
74905;BME280;63465;50.862;6.220;2024-02-15T02:35:20;100019.75;;;11.97;100.00
74905;BME280;63465;50.862;6.220;2024-02-15T02:37:45;100025.88;;;11.97;100.00
74905;BME280;63465;50.862;6.220;2024-02-15T02:40:11;100012.78;;;12.08;100.00
74905;BME280;63465;50.862;6.220;2024-02-15T02:42:50;100015.75;;;12.04;100.00
74905;BME280;63465;50.862;6.220;2024-02-15T02:45:19;100010.28;;;12.07;100.00
74905;BME280;63465;50.862;6.220;2024-02-15T02:47:45;100012.78;;;12.08;100.00
74905;BME280;63465;50.862;6.220;2024-02-15T02:50:12;100004.47;;;12.14;100.00
74905;BME280;63465;50.862;6.220;2024-02-15T02:52:37;99999.47;;;12.22;100.00
74905;BME280;63465;50.862;6.220;2024-02-15T02:55:04;100005.19;;;12.16;100.00
74905;BME280;63465;50.862;6.220;2024-02-15T02:57:34;100002.78;;;12.13;100.00
74905;BME280;63465;50.862;6.220;2024-02-15T02:59:59;99993.66;;;12.06;100.00
74905;BME280;63465;50.862;6.220;2024-02-15T03:02:24;99990.97;;;12.19;100.00
74905;BME280;63465;50.862;6.220;2024-02-15T03:04:50;99989.97;;;12.09;100.00
74905;BME280;63465;50.862;6.220;2024-02-15T03:07:15;99992.38;;;12.12;100.00
74905;BME280;63465;50.862;6.220;2024-02-15T03:09:42;99988.63;;;12.03;100.00
74905;BME280;63465;50.862;6.220;2024-02-15T03:12:07;99990.75;;;11.98;100.00
74905;BME280;63465;50.862;6.220;2024-02-15T03:14:34;99984.03;;;11.94;100.00
74905;BME280;63465;50.862;6.220;2024-02-15T03:17:00;99989.72;;;11.88;100.00
74905;BME280;63465;50.862;6.220;2024-02-15T03:19:28;99997.16;;;11.94;100.00
74905;BME280;63465;50.862;6.220;2024-02-15T03:21:56;99989.72;;;11.88;100.00
74905;BME280;63465;50.862;6.220;2024-02-15T03:24:21;99983.63;;;11.75;100.00
74905;BME280;63465;50.862;6.220;2024-02-15T03:26:46;99987.00;;;11.77;100.00
74905;BME280;63465;50.862;6.220;2024-02-15T03:29:11;99984.38;;;11.77;100.00
74905;BME280;63465;50.862;6.220;2024-02-15T03:31:37;99982.59;;;11.77;100.00
74905;BME280;63465;50.862;6.220;2024-02-15T03:34:05;99978.38;;;11.75;100.00
74905;BME280;63465;50.862;6.220;2024-02-15T03:36:30;99983.63;;;11.75;100.00
74905;BME280;63465;50.862;6.220;2024-02-15T03:38:56;99977.34;;;11.77;100.00
74905;BME280;63465;50.862;6.220;2024-02-15T03:41:22;99968.41;;;11.80;100.00
74905;BME280;63465;50.862;6.220;2024-02-15T03:43:47;99975.13;;;11.71;100.00
74905;BME280;63465;50.862;6.220;2024-02-15T03:46:13;99975.03;;;11.73;100.00
74905;BME280;63465;50.862;6.220;2024-02-15T03:48:43;99975.97;;;11.72;100.00
74905;BME280;63465;50.862;6.220;2024-02-15T03:51:09;99973.03;;;11.64;100.00
74905;BME280;63465;50.862;6.220;2024-02-15T03:53:34;99964.03;;;11.55;100.00
74905;BME280;63465;50.862;6.220;2024-02-15T03:56:03;99965.53;;;11.46;100.00
74905;BME280;63465;50.862;6.220;2024-02-15T03:58:29;99958.91;;;11.41;100.00
74905;BME280;63465;50.862;6.220;2024-02-15T04:00:55;99964.06;;;11.42;100.00
74905;BME280;63465;50.862;6.220;2024-02-15T04:03:22;99962.91;;;11.34;100.00
74905;BME280;63465;50.862;6.220;2024-02-15T04:05:47;99958.91;;;11.41;100.00
74905;BME280;63465;50.862;6.220;2024-02-15T04:08:13;99960.06;;;11.49;100.00
74905;BME280;63465;50.862;6.220;2024-02-15T04:10:41;99962.69;;;11.49;100.00
74905;BME280;63465;50.862;6.220;2024-02-15T04:13:07;99966.34;;;11.59;100.00
74905;BME280;63465;50.862;6.220;2024-02-15T04:15:32;99964.88;;;11.55;100.00
74905;BME280;63465;50.862;6.220;2024-02-15T04:17:59;99967.38;;;11.57;100.00
74905;BME280;63465;50.862;6.220;2024-02-15T04:20:25;99969.81;;;11.47;100.00
74905;BME280;63465;50.862;6.220;2024-02-15T04:22:51;99967.91;;;11.62;100.00
74905;BME280;63465;50.862;6.220;2024-02-15T04:25:16;99971.38;;;11.63;100.00
74905;BME280;63465;50.862;6.220;2024-02-15T04:27:45;99974.53;;;11.55;100.00
74905;BME280;63465;50.862;6.220;2024-02-15T04:30:14;99974.22;;;11.59;100.00
74905;BME280;63465;50.862;6.220;2024-02-15T04:32:40;99971.81;;;11.56;100.00
74905;BME280;63465;50.862;6.220;2024-02-15T04:35:06;99975.78;;;11.62;100.00
74905;BME280;63465;50.862;6.220;2024-02-15T04:37:31;99971.81;;;11.56;100.00
74905;BME280;63465;50.862;6.220;2024-02-15T04:39:58;99970.94;;;11.69;100.00
74905;BME280;63465;50.862;6.220;2024-02-15T04:42:31;99973.34;;;11.72;100.00
74905;BME280;63465;50.862;6.220;2024-02-15T04:44:57;99968.94;;;11.72;100.00
74905;BME280;63465;50.862;6.220;2024-02-15T04:47:23;99983.25;;;11.55;100.00
74905;BME280;63465;50.862;6.220;2024-02-15T04:49:49;99968.13;;;11.59;100.00
74905;BME280;63465;50.862;6.220;2024-02-15T04:52:14;99981.78;;;11.51;100.00
74905;BME280;63465;50.862;6.220;2024-02-15T04:54:39;99978.94;;;11.54;100.00
74905;BME280;63465;50.862;6.220;2024-02-15T04:57:05;99979.97;;;11.65;100.00
74905;BME280;63465;50.862;6.220;2024-02-15T04:59:31;99987.31;;;11.72;100.00
74905;BME280;63465;50.862;6.220;2024-02-15T05:01:58;99979.13;;;11.64;100.00
74905;BME280;63465;50.862;6.220;2024-02-15T05:04:23;99976.63;;;11.63;100.00
74905;BME280;63465;50.862;6.220;2024-02-15T05:06:50;99977.91;;;11.44;100.00
74905;BME280;63465;50.862;6.220;2024-02-15T05:09:15;99967.31;;;11.33;100.00
74905;BME280;63465;50.862;6.220;2024-02-15T05:11:43;99966.06;;;11.13;100.00
74905;BME280;63465;50.862;6.220;2024-02-15T05:14:14;99959.56;;;11.19;100.00
74905;BME280;63465;50.862;6.220;2024-02-15T05:16:47;99962.09;;;11.20;100.00
74905;BME280;63465;50.862;6.220;2024-02-15T05:19:14;99964.91;;;11.17;100.00
74905;BME280;63465;50.862;6.220;2024-02-15T05:21:39;99975.53;;;11.16;100.00
74905;BME280;63465;50.862;6.220;2024-02-15T05:24:05;99964.81;;;11.19;100.00
74905;BME280;63465;50.862;6.220;2024-02-15T05:26:31;99963.44;;;11.26;100.00
74905;BME280;63465;50.862;6.220;2024-02-15T05:28:57;99960.41;;;11.19;100.00
74905;BME280;63465;50.862;6.220;2024-02-15T05:31:22;99947.59;;;11.15;100.00
74905;BME280;63465;50.862;6.220;2024-02-15T05:33:51;99943.72;;;10.95;100.00
74905;BME280;63465;50.862;6.220;2024-02-15T05:36:18;99945.94;;;11.01;100.00
74905;BME280;63465;50.862;6.220;2024-02-15T05:38:47;99935.63;;;11.11;100.00
74905;BME280;63465;50.862;6.220;2024-02-15T05:41:13;99935.22;;;11.17;100.00
74905;BME280;63465;50.862;6.220;2024-02-15T05:43:39;99935.09;;;11.18;100.00
74905;BME280;63465;50.862;6.220;2024-02-15T05:46:07;99943.59;;;11.35;100.00
74905;BME280;63465;50.862;6.220;2024-02-15T05:48:32;99935.38;;;11.39;100.00
74905;BME280;63465;50.862;6.220;2024-02-15T05:51:01;99936.22;;;11.40;100.00
74905;BME280;63465;50.862;6.220;2024-02-15T05:53:27;99929.19;;;11.40;100.00
74905;BME280;63465;50.862;6.220;2024-02-15T05:55:52;99935.91;;;11.44;100.00
74905;BME280;63465;50.862;6.220;2024-02-15T05:58:18;99929.25;;;11.51;100.00
74905;BME280;63465;50.862;6.220;2024-02-15T06:00:43;99923.63;;;11.32;100.00
74905;BME280;63465;50.862;6.220;2024-02-15T06:03:15;99922.78;;;11.32;100.00
74905;BME280;63465;50.862;6.220;2024-02-15T06:05:41;99920.06;;;11.33;100.00
74905;BME280;63465;50.862;6.220;2024-02-15T06:08:07;99925.50;;;11.43;100.00
74905;BME280;63465;50.862;6.220;2024-02-15T06:10:32;99919.53;;;11.41;100.00
74905;BME280;63465;50.862;6.220;2024-02-15T06:12:58;99922.66;;;11.46;100.00
74905;BME280;63465;50.862;6.220;2024-02-15T06:15:24;99922.78;;;11.44;100.00
74905;BME280;63465;50.862;6.220;2024-02-15T06:17:50;99921.50;;;11.50;100.00
74905;BME280;63465;50.862;6.220;2024-02-15T06:20:16;99922.94;;;11.54;100.00
74905;BME280;63465;50.862;6.220;2024-02-15T06:22:43;99919.34;;;11.68;100.00
74905;BME280;63465;50.862;6.220;2024-02-15T06:25:08;99915.75;;;11.69;100.00
74905;BME280;63465;50.862;6.220;2024-02-15T06:27:35;99911.00;;;11.86;100.00
74905;BME280;63465;50.862;6.220;2024-02-15T06:30:06;99918.78;;;11.75;100.00
74905;BME280;63465;50.862;6.220;2024-02-15T06:32:50;99920.41;;;11.65;100.00
74905;BME280;63465;50.862;6.220;2024-02-15T06:35:34;99915.13;;;11.78;100.00
74905;BME280;63465;50.862;6.220;2024-02-15T06:38:18;99913.50;;;11.88;100.00
74905;BME280;63465;50.862;6.220;2024-02-15T06:41:02;99923.31;;;11.86;100.00
74905;BME280;63465;50.862;6.220;2024-02-15T06:43:27;99919.56;;;12.01;100.00
74905;BME280;63465;50.862;6.220;2024-02-15T06:45:52;99920.78;;;12.08;100.00
74905;BME280;63465;50.862;6.220;2024-02-15T06:48:17;99912.66;;;12.11;100.00
74905;BME280;63465;50.862;6.220;2024-02-15T06:50:43;99930.13;;;12.12;100.00
74905;BME280;63465;50.862;6.220;2024-02-15T06:53:08;99920.56;;;12.11;100.00
74905;BME280;63465;50.862;6.220;2024-02-15T06:55:33;99914.56;;;12.09;100.00
74905;BME280;63465;50.862;6.220;2024-02-15T06:57:59;99919.16;;;12.18;100.00
74905;BME280;63465;50.862;6.220;2024-02-15T07:00:24;99909.00;;;12.25;100.00
74905;BME280;63465;50.862;6.220;2024-02-15T07:02:49;99914.28;;;12.25;100.00
74905;BME280;63465;50.862;6.220;2024-02-15T07:05:15;99908.44;;;12.33;100.00
74905;BME280;63465;50.862;6.220;2024-02-15T07:07:42;99917.50;;;12.29;100.00
74905;BME280;63465;50.862;6.220;2024-02-15T07:10:09;99916.56;;;12.30;100.00
74905;BME280;63465;50.862;6.220;2024-02-15T07:12:34;99913.47;;;12.36;100.00
74905;BME280;63465;50.862;6.220;2024-02-15T07:14:59;99915.38;;;12.34;100.00
74905;BME280;63465;50.862;6.220;2024-02-15T07:17:27;99905.97;;;12.42;100.00
74905;BME280;63465;50.862;6.220;2024-02-15T07:19:52;99909.06;;;12.36;100.00
74905;BME280;63465;50.862;6.220;2024-02-15T07:22:18;99914.44;;;12.35;100.00
74905;BME280;63465;50.862;6.220;2024-02-15T07:24:43;99916.47;;;12.42;100.00
74905;BME280;63465;50.862;6.220;2024-02-15T07:27:09;99919.00;;;12.44;100.00
74905;BME280;63465;50.862;6.220;2024-02-15T07:29:35;99916.59;;;12.41;100.00
74905;BME280;63465;50.862;6.220;2024-02-15T07:32:05;99916.63;;;12.52;100.00
74905;BME280;63465;50.862;6.220;2024-02-15T07:34:31;99917.69;;;12.49;100.00
74905;BME280;63465;50.862;6.220;2024-02-15T07:36:58;99925.22;;;12.43;100.00
74905;BME280;63465;50.862;6.220;2024-02-15T07:39:24;99923.44;;;12.43;100.00
74905;BME280;63465;50.862;6.220;2024-02-15T07:41:52;99922.84;;;12.51;100.00
74905;BME280;63465;50.862;6.220;2024-02-15T07:44:17;99920.31;;;12.38;100.00
74905;BME280;63465;50.862;6.220;2024-02-15T07:46:43;99921.84;;;12.41;100.00
74905;BME280;63465;50.862;6.220;2024-02-15T07:49:08;99910.75;;;12.48;100.00
74905;BME280;63465;50.862;6.220;2024-02-15T07:51:34;99913.28;;;12.50;100.00
74905;BME280;63465;50.862;6.220;2024-02-15T07:53:59;99916.63;;;12.52;100.00
74905;BME280;63465;50.862;6.220;2024-02-15T07:56:26;99917.59;;;12.51;100.00
74905;BME280;63465;50.862;6.220;2024-02-15T07:58:52;99911.16;;;12.66;100.00
74905;BME280;63465;50.862;6.220;2024-02-15T08:01:17;99906.84;;;12.65;100.00
74905;BME280;63465;50.862;6.220;2024-02-15T08:03:45;99899.81;;;12.66;100.00
74905;BME280;63465;50.862;6.220;2024-02-15T08:06:12;99893.22;;;12.71;100.00
74905;BME280;63465;50.862;6.220;2024-02-15T08:08:39;99897.88;;;12.68;100.00
74905;BME280;63465;50.862;6.220;2024-02-15T08:11:06;99898.00;;;12.66;100.00
74905;BME280;63465;50.862;6.220;2024-02-15T08:13:35;99898.25;;;12.74;100.00
74905;BME280;63465;50.862;6.220;2024-02-15T08:16:03;99902.09;;;12.81;100.00
74905;BME280;63465;50.862;6.220;2024-02-15T08:18:30;99904.38;;;12.86;100.00
74905;BME280;63465;50.862;6.220;2024-02-15T08:20:57;99907.59;;;12.89;100.00
74905;BME280;63465;50.862;6.220;2024-02-15T08:23:22;99902.38;;;13.01;100.00
74905;BME280;63465;50.862;6.220;2024-02-15T08:25:47;99892.06;;;12.98;100.00
74905;BME280;63465;50.862;6.220;2024-02-15T08:28:13;99882.59;;;12.95;100.00
74905;BME280;63465;50.862;6.220;2024-02-15T08:30:38;99889.31;;;12.99;100.00
74905;BME280;63465;50.862;6.220;2024-02-15T08:33:03;99883.59;;;13.05;100.00
74905;BME280;63465;50.862;6.220;2024-02-15T08:35:29;99891.75;;;13.36;100.00
74905;BME280;63465;50.862;6.220;2024-02-15T08:37:54;99885.03;;;13.32;100.00
74905;BME280;63465;50.862;6.220;2024-02-15T08:40:21;99887.78;;;13.41;100.00
74905;BME280;63465;50.862;6.220;2024-02-15T08:42:50;99881.56;;;13.42;100.00
74905;BME280;63465;50.862;6.220;2024-02-15T08:45:15;99882.63;;;13.40;100.00
74905;BME280;63465;50.862;6.220;2024-02-15T08:47:42;99877.34;;;13.51;100.00
74905;BME280;63465;50.862;6.220;2024-02-15T08:50:09;99876.88;;;13.46;100.00
74905;BME280;63465;50.862;6.220;2024-02-15T08:52:35;99882.53;;;13.30;100.00
74905;BME280;63465;50.862;6.220;2024-02-15T08:55:09;99880.25;;;13.37;100.00
74905;BME280;63465;50.862;6.220;2024-02-15T08:57:35;99875.34;;;13.32;100.00
74905;BME280;63465;50.862;6.220;2024-02-15T09:00:04;99876.31;;;13.31;100.00
74905;BME280;63465;50.862;6.220;2024-02-15T09:02:39;99875.44;;;13.42;100.00
74905;BME280;63465;50.862;6.220;2024-02-15T09:05:06;99877.97;;;13.32;100.00
74905;BME280;63465;50.862;6.220;2024-02-15T09:07:31;99886.72;;;13.33;100.00
74905;BME280;63465;50.862;6.220;2024-02-15T09:09:56;99881.69;;;13.41;100.00
74905;BME280;63465;50.862;6.220;2024-02-15T09:12:22;99887.66;;;13.43;100.00
74905;BME280;63465;50.862;6.220;2024-02-15T09:14:47;99898.09;;;13.44;100.00
74905;BME280;63465;50.862;6.220;2024-02-15T09:17:13;99898.31;;;13.52;100.00
74905;BME280;63465;50.862;6.220;2024-02-15T09:19:38;99897.81;;;13.59;100.00
74905;BME280;63465;50.862;6.220;2024-02-15T09:22:04;99898.41;;;13.62;100.00
74905;BME280;63465;50.862;6.220;2024-02-15T09:24:30;99899.25;;;13.63;100.00
74905;BME280;63465;50.862;6.220;2024-02-15T09:26:55;99903.19;;;13.68;100.00
74905;BME280;63465;50.862;6.220;2024-02-15T09:29:21;99900.44;;;13.70;100.00
74905;BME280;63465;50.862;6.220;2024-02-15T09:31:49;99901.16;;;13.72;100.00
74905;BME280;63465;50.862;6.220;2024-02-15T09:34:15;99899.56;;;13.80;100.00
74905;BME280;63465;50.862;6.220;2024-02-15T09:36:40;99909.72;;;13.85;100.00
74905;BME280;63465;50.862;6.220;2024-02-15T09:39:05;99890.91;;;13.90;100.00
74905;BME280;63465;50.862;6.220;2024-02-15T09:41:31;99893.06;;;13.84;100.00
74905;BME280;63465;50.862;6.220;2024-02-15T09:43:57;99897.59;;;13.94;100.00
74905;BME280;63465;50.862;6.220;2024-02-15T09:46:23;99898.28;;;14.07;100.00
74905;BME280;63465;50.862;6.220;2024-02-15T09:48:50;99892.16;;;14.06;100.00
74905;BME280;63465;50.862;6.220;2024-02-15T09:51:18;99884.13;;;14.08;100.00
74905;BME280;63465;50.862;6.220;2024-02-15T09:53:46;99884.66;;;14.23;100.00
74905;BME280;63465;50.862;6.220;2024-02-15T09:56:13;99886.31;;;14.24;100.00
74905;BME280;63465;50.862;6.220;2024-02-15T09:58:39;99883.75;;;14.33;100.00
74905;BME280;63465;50.862;6.220;2024-02-15T10:01:04;99883.25;;;14.39;100.00
74905;BME280;63465;50.862;6.220;2024-02-15T10:03:37;99875.56;;;14.47;100.00
74905;BME280;63465;50.862;6.220;2024-02-15T10:06:03;99886.25;;;14.46;100.00
74905;BME280;63465;50.862;6.220;2024-02-15T10:08:29;99875.69;;;14.67;100.00
74905;BME280;63465;50.862;6.220;2024-02-15T10:11:08;99887.06;;;14.67;100.00
74905;BME280;63465;50.862;6.220;2024-02-15T10:13:36;99874.25;;;14.84;100.00
74905;BME280;63465;50.862;6.220;2024-02-15T10:16:18;99872.88;;;14.89;100.00
74905;BME280;63465;50.862;6.220;2024-02-15T10:18:45;99878.28;;;14.88;100.00
74905;BME280;63465;50.862;6.220;2024-02-15T10:21:24;99871.59;;;14.84;100.00
74905;BME280;63465;50.862;6.220;2024-02-15T10:24:05;99874.38;;;15.12;100.00
74905;BME280;63465;50.862;6.220;2024-02-15T10:26:30;99871.72;;;15.12;100.00
74905;BME280;63465;50.862;6.220;2024-02-15T10:29:23;99867.94;;;15.45;100.00
74905;BME280;63465;50.862;6.220;2024-02-15T10:31:57;99872.34;;;15.35;100.00
74905;BME280;63465;50.862;6.220;2024-02-15T10:34:24;99870.97;;;15.41;100.00
74905;BME280;63465;50.862;6.220;2024-02-15T10:36:51;99872.91;;;15.39;100.00
74905;BME280;63465;50.862;6.220;2024-02-15T10:39:17;99871.19;;;15.19;100.00
74905;BME280;63465;50.862;6.220;2024-02-15T10:41:45;99873.88;;;15.38;100.00
74905;BME280;63465;50.862;6.220;2024-02-15T10:44:19;99867.13;;;15.55;100.00
74905;BME280;63465;50.862;6.220;2024-02-15T10:46:46;99865.28;;;15.86;100.00
74905;BME280;63465;50.862;6.220;2024-02-15T10:49:16;99877.09;;;15.91;100.00
74905;BME280;63465;50.862;6.220;2024-02-15T10:51:44;99869.72;;;16.33;100.00
74905;BME280;63465;50.862;6.220;2024-02-15T10:54:12;99860.41;;;16.10;100.00
74905;BME280;63465;50.862;6.220;2024-02-15T10:56:43;99868.88;;;16.23;100.00
74905;BME280;63465;50.862;6.220;2024-02-15T10:59:19;99859.56;;;15.90;100.00
74905;BME280;63465;50.862;6.220;2024-02-15T11:01:57;99862.50;;;16.06;100.00
74905;BME280;63465;50.862;6.220;2024-02-15T11:04:24;99853.22;;;16.68;100.00
74905;BME280;63465;50.862;6.220;2024-02-15T11:06:54;99859.22;;;16.51;100.00
74905;BME280;63465;50.862;6.220;2024-02-15T11:09:21;99859.69;;;16.18;100.00
74905;BME280;63465;50.862;6.220;2024-02-15T11:11:47;99849.03;;;16.56;100.00
74905;BME280;63465;50.862;6.220;2024-02-15T11:14:26;99851.16;;;16.43;100.00
74905;BME280;63465;50.862;6.220;2024-02-15T11:16:54;99846.59;;;16.16;100.00
74905;BME280;63465;50.862;6.220;2024-02-15T11:19:40;99845.38;;;16.01;100.00
74905;BME280;63465;50.862;6.220;2024-02-15T11:22:14;99854.00;;;15.93;100.00
74905;BME280;63465;50.862;6.220;2024-02-15T11:24:51;99840.34;;;16.07;100.00
74905;BME280;63465;50.862;6.220;2024-02-15T11:27:30;99834.09;;;15.70;100.00
74905;BME280;63465;50.862;6.220;2024-02-15T11:29:57;99835.91;;;15.89;100.00
74905;BME280;63465;50.862;6.220;2024-02-15T11:32:48;99827.25;;;15.96;100.00
74905;BME280;63465;50.862;6.220;2024-02-15T11:35:22;99826.72;;;16.02;100.00
74905;BME280;63465;50.862;6.220;2024-02-15T11:43:06;99805.63;;;16.86;100.00
74905;BME280;63465;50.862;6.220;2024-02-15T11:45:32;99803.97;;;16.85;100.00
74905;BME280;63465;50.862;6.220;2024-02-15T11:48:08;99808.88;;;16.14;100.00
74905;BME280;63465;50.862;6.220;2024-02-15T11:50:36;99802.25;;;16.47;100.00
74905;BME280;63465;50.862;6.220;2024-02-15T11:53:06;99803.72;;;16.03;100.00
74905;BME280;63465;50.862;6.220;2024-02-15T11:55:35;99806.22;;;16.24;100.00
74905;BME280;63465;50.862;6.220;2024-02-15T11:58:02;99794.81;;;16.04;100.00
74905;BME280;63465;50.862;6.220;2024-02-15T12:00:48;99790.50;;;16.03;100.00
74905;BME280;63465;50.862;6.220;2024-02-15T12:03:32;99797.63;;;15.83;100.00
74905;BME280;63465;50.862;6.220;2024-02-15T12:06:19;99788.28;;;15.89;100.00
74905;BME280;63465;50.862;6.220;2024-02-15T12:09:03;99793.16;;;15.93;100.00
74905;BME280;63465;50.862;6.220;2024-02-15T12:11:47;99782.31;;;15.77;100.00
74905;BME280;63465;50.862;6.220;2024-02-15T12:14:31;99783.16;;;15.78;100.00
74905;BME280;63465;50.862;6.220;2024-02-15T12:17:14;99777.16;;;15.85;100.00
74905;BME280;63465;50.862;6.220;2024-02-15T12:20:02;99779.38;;;15.80;100.00
74905;BME280;63465;50.862;6.220;2024-02-15T12:22:45;99767.84;;;15.71;100.00
74905;BME280;63465;50.862;6.220;2024-02-15T12:25:16;99760.06;;;15.60;100.00
74905;BME280;63465;50.862;6.220;2024-02-15T12:27:42;99755.72;;;15.69;100.00
74905;BME280;63465;50.862;6.220;2024-02-15T12:30:13;99755.59;;;15.61;100.00
74905;BME280;63465;50.862;6.220;2024-02-15T12:32:38;99751.00;;;15.72;100.00
74905;BME280;63465;50.862;6.220;2024-02-15T12:35:14;99753.38;;;15.66;100.00
74905;BME280;63465;50.862;6.220;2024-02-15T12:37:45;99747.66;;;15.80;100.00
74905;BME280;63465;50.862;6.220;2024-02-15T12:40:15;99748.63;;;15.79;100.00
74905;BME280;63465;50.862;6.220;2024-02-15T12:42:46;99752.78;;;15.91;100.00
74905;BME280;63465;50.862;6.220;2024-02-15T12:45:18;99747.22;;;15.85;100.00
74905;BME280;63465;50.862;6.220;2024-02-15T12:47:51;99745.97;;;15.79;100.00
74905;BME280;63465;50.862;6.220;2024-02-15T12:50:19;99740.56;;;15.71;100.00
74905;BME280;63465;50.862;6.220;2024-02-15T12:52:49;99736.81;;;15.64;100.00
74905;BME280;63465;50.862;6.220;2024-02-15T12:55:21;99728.19;;;15.62;100.00
74905;BME280;63465;50.862;6.220;2024-02-15T12:57:51;99717.56;;;15.52;100.00